Bronson, Michigan
Current Conditions -  °F | °C
As of 8:34 AM on Friday 24 Oct 2014 (Local Time) from KOEB Reporting Station
Overcast Overcast  
Wind Chill: 46°   Ceiling: 3400
Heat Index: 49°   Visibility: 10mi
Dew Point: 43°   Wind: 7mph
Humidity: 80%   Direction: 220°SW
Pressure: 30.07"   Gusts: NA
Location:  41.87°N, 85.19°W
Report Text: KOEB 241234Z AUTO 22006KT 10SM OVC034 09/06 A3007 RMK AO2 T00930061
Loading
Personal Weather Stations






























Interactive Weather Map
Tropical Storm Tracking
New forecast layout! Learn more

10-Day Weather Forecast

Advertisements
Track Severe Weather on mobile